Terminal Aerodrome Forecast
Issued by NWS

Home | Current Version | Previous Version | Text Only | Print | Product List | Glossary On
Versions: 1 2 3 4 5 6 7 8 9 10 11 12 13 14 15 16 17 18 19 20 21 22 23 24 25 26 27 28
571
FTUS41 KOKX 300236 AAA
TAFSWF
TAF AMD
KSWF 300236Z 3003/3106 VRB02KT P6SM FEW040 SCT150
     FM301100 VRB03KT P6SM BKN050 BKN150
     FM301600 12005KT P6SM BKN050 BKN120 PROB30 3020/3024 6SM -SHRA
     FM310000 VRB03KT 6SM -SHRA SCT020 BKN050 BKN120
      AMD NOT SKED=

USA.gov is the U.S. government's official web portal to all federal, state and local government web resources and services.